< Typhoon 198107 1981 Season Typhoon 198109 >
Typhoon 198108 (MAURY)
General InformationTrack Information on Google MapsDetailed Wind InformationList of All Images || Disaster Info.ResourceGoogle EarthGE AnimationAtom FeedGeoJSON
Detalied Best Track (Time Zone = UTC)
Year Month Day Hour Lat. Long. Pressure (hPa) Wind (kt) Class Image Chart
1981 7 17 06 18.8 133.0 1002 0 2 Image Chart
1981 7 17 12 19.5 131.6 1000 0 2 Image Chart
1981 7 17 18 20.2 130.2 996 0 2 Image Chart
1981 7 18 00 20.8 128.9 992 45 3 Image Chart
1981 7 18 06 21.7 127.4 990 45 3 Image Chart
1981 7 18 12 22.8 126.4 990 45 3 Image Chart
1981 7 18 18 23.9 125.4 985 50 4 Image Chart
1981 7 19 00 25.0 124.3 985 50 4 Image Chart
1981 7 19 06 25.0 123.1 985 50 4 Image Chart
1981 7 19 12 25.2 121.9 990 45 3 Image Chart
1981 7 19 18 25.5 120.8 990 45 3 Image Chart
1981 7 20 00 25.8 119.5 992 0 2 Image Chart
1981 7 20 06 25.6 118.0 994 0 2 Image Chart
1981 7 20 12 25.3 116.5 998 0 2 Image Chart
1981 7 20 18 25.0 115.0 998 0 2 Image Chart
1981 7 21 00 24.7 114.1 998 0 2 Image Chart
1981 7 21 06 24.3 113.3 998 0 2 Image Chart
1981 7 21 12 24.0 112.5 998 0 2 Image Chart
1981 7 21 18 23.5 111.6 998 0 6 Image Chart
1981 7 22 00 23.0 111.0 1000 0 6 Image Chart
1981 7 22 06 22.7 110.5 998 0 6 Image Chart
1981 7 22 12 22.5 110.0 998 0 6 Image Chart
1981 7 22 18 22.2 109.5 998 0 6 Image Chart
1981 7 23 00 22.0 109.0 998 0 6 Image Chart
1981 7 23 06 22.0 108.5 996 0 6 Image Chart
1981 7 23 12 22.6 108.8 996 0 6 Image Chart
1981 7 23 18 22.9 109.5 998 0 6 Image Chart
Japan Meteorological Agency Best Track Data | Correction Date : 1992-10-21
< Typhoon 198107 1981 Season Typhoon 198109 >

Help